createdAt,value
2023-04-06T00:01:58.911Z,102028.28
2023-04-06T00:04:31.429Z,102029.97
2023-04-06T00:07:03.868Z,102024.63
2023-04-06T00:09:36.246Z,102021.81
2023-04-06T00:12:08.794Z,102027.06
2023-04-06T00:14:41.839Z,102021.88
2023-04-06T00:17:14.040Z,102018.41
2023-04-06T00:19:46.942Z,102022.56
2023-04-06T00:22:19.137Z,102020.78
2023-04-06T00:24:51.303Z,102017.38
2023-04-06T00:27:23.459Z,102020.00
2023-04-06T00:29:55.674Z,102013.78
2023-04-06T00:32:29.120Z,102007.72
2023-04-06T00:35:06.652Z,102003.25
2023-04-06T00:37:38.819Z,102009.25
2023-04-06T00:40:11.652Z,102010.94
2023-04-06T00:42:43.982Z,101998.66
2023-04-06T00:45:16.239Z,102006.44
2023-04-06T00:47:48.540Z,101997.69
2023-04-06T00:50:20.952Z,102002.72
2023-04-06T00:52:53.170Z,102000.97
2023-04-06T00:55:25.818Z,101994.88
2023-04-06T00:58:01.409Z,101987.09
2023-04-06T01:00:34.037Z,101994.81
2023-04-06T01:03:08.071Z,101991.28
2023-04-06T01:05:41.900Z,101991.25
2023-04-06T01:08:14.879Z,101990.31
2023-04-06T01:10:47.094Z,101986.72
2023-04-06T01:13:22.211Z,101977.03
2023-04-06T01:15:54.709Z,101976.97
2023-04-06T01:18:28.919Z,101971.84
2023-04-06T01:21:01.321Z,101976.94
2023-04-06T01:23:33.464Z,101978.50
2023-04-06T01:26:05.953Z,101978.44
2023-04-06T01:28:38.727Z,101977.44
2023-04-06T01:31:11.732Z,101967.97
2023-04-06T01:33:44.045Z,101975.69
2023-04-06T01:36:16.829Z,101963.50
2023-04-06T01:38:49.302Z,101967.75
2023-04-06T01:41:21.750Z,101961.59
2023-04-06T01:43:55.906Z,101963.28
2023-04-06T01:46:28.263Z,101959.81
2023-04-06T01:49:00.893Z,101955.41
2023-04-06T01:51:33.079Z,101958.00
2023-04-06T01:54:06.083Z,101951.06
2023-04-06T01:56:38.438Z,101951.88
2023-04-06T01:59:10.981Z,101952.00
2023-04-06T02:01:43.602Z,101945.00
2023-04-06T02:04:17.326Z,101938.66
2023-04-06T02:06:49.584Z,101942.13
2023-04-06T02:09:21.941Z,101940.28
2023-04-06T02:11:54.241Z,101934.97
2023-04-06T02:14:27.510Z,101934.06
2023-04-06T02:16:59.879Z,101929.66
2023-04-06T02:19:32.028Z,101928.75
2023-04-06T02:22:04.365Z,101928.63
2023-04-06T02:24:36.838Z,101933.81
2023-04-06T02:27:08.990Z,101934.63
2023-04-06T02:29:41.227Z,101930.22
2023-04-06T02:32:13.403Z,101927.47
2023-04-06T02:34:45.533Z,101932.59
2023-04-06T02:37:17.930Z,101937.72
2023-04-06T02:39:50.210Z,101929.75
2023-04-06T02:42:22.437Z,101927.19
2023-04-06T02:44:54.690Z,101923.84
2023-04-06T02:47:27.304Z,101925.56
2023-04-06T02:49:59.747Z,101924.66
2023-04-06T02:52:31.889Z,101927.94
2023-04-06T02:55:04.528Z,101922.75
2023-04-06T02:57:37.030Z,101920.03
2023-04-06T03:00:10.024Z,101922.47
2023-04-06T03:02:42.234Z,101914.66
2023-04-06T03:05:17.544Z,101916.31
2023-04-06T03:07:49.716Z,101913.72
2023-04-06T03:10:21.944Z,101912.00
2023-04-06T03:12:54.131Z,101915.38
2023-04-06T03:15:26.469Z,101910.06
2023-04-06T03:18:00.439Z,101909.19
2023-04-06T03:20:32.890Z,101906.44
2023-04-06T03:23:05.432Z,101906.38
2023-04-06T03:25:37.563Z,101915.16
2023-04-06T03:28:09.988Z,101906.44
2023-04-06T03:30:42.120Z,101901.03
2023-04-06T03:33:14.297Z,101898.56
2023-04-06T03:35:46.641Z,101905.41
2023-04-06T03:38:18.975Z,101903.63
2023-04-06T03:40:51.291Z,101904.47
2023-04-06T03:43:23.552Z,101908.75
2023-04-06T03:45:56.178Z,101907.00
2023-04-06T03:48:31.795Z,101909.31
2023-04-06T03:51:04.314Z,101901.59
2023-04-06T03:53:38.490Z,101907.66
2023-04-06T03:56:10.980Z,101905.78
2023-04-06T03:58:45.862Z,101903.13
2023-04-06T04:01:22.095Z,101903.25
2023-04-06T04:03:55.142Z,101907.59
2023-04-06T04:06:27.650Z,101911.78
2023-04-06T04:08:59.895Z,101909.25
2023-04-06T04:11:32.127Z,101912.66
2023-04-06T04:14:04.751Z,101916.94
2023-04-06T04:16:37.514Z,101913.47
2023-04-06T04:19:11.156Z,101914.97
2023-04-06T04:21:46.195Z,101915.81
2023-04-06T04:24:19.242Z,101915.81
2023-04-06T04:26:51.623Z,101920.09
2023-04-06T04:29:24.848Z,101916.53
2023-04-06T04:31:57.832Z,101915.59
2023-04-06T04:34:30.205Z,101912.06
2023-04-06T04:37:02.337Z,101922.34
2023-04-06T04:39:34.727Z,101918.88
2023-04-06T04:42:07.041Z,101912.72
2023-04-06T04:44:39.361Z,101916.94
2023-04-06T04:47:13.613Z,101917.72
2023-04-06T04:49:45.845Z,101913.31
2023-04-06T04:52:18.877Z,101921.13
2023-04-06T04:54:51.153Z,101914.13
2023-04-06T04:57:23.405Z,101919.25
2023-04-06T04:59:57.889Z,101921.81
2023-04-06T05:02:30.324Z,101912.41
2023-04-06T05:05:02.590Z,101917.59
2023-04-06T05:07:35.162Z,101918.41
2023-04-06T05:10:08.189Z,101914.19
2023-04-06T05:12:41.131Z,101902.84
2023-04-06T05:15:13.655Z,101906.25
2023-04-06T05:17:45.961Z,101911.47
2023-04-06T05:20:18.689Z,101906.47
2023-04-06T05:22:50.948Z,101908.34
2023-04-06T05:25:23.271Z,101911.13
2023-04-06T05:27:55.561Z,101909.69
2023-04-06T05:30:27.809Z,101905.34
2023-04-06T05:33:13.847Z,101899.28
2023-04-06T05:35:46.533Z,101916.56
2023-04-06T05:38:18.754Z,101902.81
2023-04-06T05:40:50.942Z,101901.03
2023-04-06T05:43:23.391Z,101897.59
2023-04-06T05:45:55.606Z,101892.41
2023-04-06T05:48:27.993Z,101902.69
2023-04-06T05:51:01.346Z,101907.16
2023-04-06T05:53:34.244Z,101897.19
2023-04-06T05:56:09.576Z,101901.69
2023-04-06T05:58:42.813Z,101907.75
2023-04-06T06:01:15.277Z,101901.00
2023-04-06T06:03:47.482Z,101894.94
2023-04-06T06:06:19.843Z,101907.31
2023-04-06T06:08:52.467Z,101905.44
2023-04-06T06:11:24.656Z,101905.63
2023-04-06T06:13:57.580Z,101902.19
2023-04-06T06:16:29.847Z,101907.28
2023-04-06T06:19:02.189Z,101902.25
2023-04-06T06:21:34.449Z,101911.19
2023-04-06T06:24:07.897Z,101901.13
2023-04-06T06:26:40.979Z,101904.78
2023-04-06T06:29:13.394Z,101904.09
2023-04-06T06:31:45.762Z,101909.28
2023-04-06T06:34:18.593Z,101904.25
2023-04-06T06:36:52.707Z,101908.78
2023-04-06T06:39:25.033Z,101902.66
2023-04-06T06:41:57.809Z,101902.06
2023-04-06T06:44:30.318Z,101907.41
2023-04-06T06:47:02.557Z,101897.94
2023-04-06T06:49:35.289Z,101892.22
2023-04-06T06:52:07.490Z,101894.59
2023-04-06T06:54:39.657Z,101895.06
2023-04-06T06:57:12.046Z,101895.31
2023-04-06T06:59:44.488Z,101903.03
2023-04-06T07:02:16.734Z,101891.78
2023-04-06T07:04:52.313Z,101893.75
2023-04-06T07:07:24.688Z,101893.41
2023-04-06T07:09:56.938Z,101899.50
2023-04-06T07:12:29.208Z,101890.13
2023-04-06T07:15:02.256Z,101889.03
2023-04-06T07:17:34.547Z,101893.66
2023-04-06T07:20:07.272Z,101891.53
2023-04-06T07:22:46.267Z,101885.13
2023-04-06T07:25:18.711Z,101891.66
2023-04-06T07:27:50.926Z,101884.78
2023-04-06T07:30:23.458Z,101874.66
2023-04-06T07:32:56.980Z,101871.47
2023-04-06T07:35:31.383Z,101873.00
2023-04-06T07:38:04.047Z,101871.84
2023-04-06T07:40:36.476Z,101873.41
2023-04-06T07:43:08.853Z,101870.16
2023-04-06T07:45:41.224Z,101867.94
2023-04-06T07:48:15.812Z,101859.88
2023-04-06T07:50:48.026Z,101860.63
2023-04-06T07:53:20.218Z,101864.50
2023-04-06T07:55:52.545Z,101857.13
2023-04-06T07:58:24.999Z,101860.16
2023-04-06T08:00:59.262Z,101851.75
2023-04-06T08:03:31.661Z,101851.44
2023-04-06T08:06:04.975Z,101850.84
2023-04-06T08:08:37.459Z,101852.00
2023-04-06T08:11:10.746Z,101854.97
2023-04-06T08:13:42.924Z,101850.81
2023-04-06T08:16:18.207Z,101856.16
2023-04-06T08:18:50.578Z,101849.97
2023-04-06T08:21:26.391Z,101831.38
2023-04-06T08:23:59.112Z,101837.00
2023-04-06T08:26:31.345Z,101837.66
2023-04-06T08:29:05.272Z,101841.72
2023-04-06T08:31:38.263Z,101833.88
2023-04-06T08:34:13.248Z,101826.88
2023-04-06T08:36:47.187Z,101820.25
2023-04-06T08:39:26.547Z,101819.28
2023-04-06T08:42:01.155Z,101818.72
2023-04-06T08:44:33.913Z,101820.88
2023-04-06T08:47:07.031Z,101811.56
2023-04-06T08:49:40.134Z,101813.22
2023-04-06T08:52:14.571Z,101813.78
2023-04-06T08:54:47.107Z,101814.00
2023-04-06T08:57:20.630Z,101802.50
2023-04-06T08:59:54.082Z,101806.81
2023-04-06T09:02:27.011Z,101805.66
2023-04-06T09:05:00.764Z,101818.72
2023-04-06T09:07:33.160Z,101810.34
2023-04-06T09:10:07.628Z,101808.25
2023-04-06T09:12:39.929Z,101813.56
2023-04-06T09:15:25.166Z,101809.72
2023-04-06T09:17:58.029Z,101815.22
2023-04-06T09:20:30.769Z,101811.00
2023-04-06T09:23:03.069Z,101809.50
2023-04-06T09:25:41.694Z,101805.78
2023-04-06T09:31:52.563Z,101805.84
2023-04-06T09:34:27.705Z,101796.84
2023-04-06T09:37:02.539Z,101799.25
2023-04-06T09:39:36.653Z,101798.59
2023-04-06T09:42:09.774Z,101791.63
2023-04-06T09:44:51.594Z,101783.50
2023-04-06T09:47:25.873Z,101789.00
2023-04-06T09:50:39.578Z,101784.47
2023-04-06T09:53:13.741Z,101792.25
2023-04-06T09:56:07.113Z,101791.13
2023-04-06T10:07:25.334Z,101789.13
2023-04-06T10:10:01.442Z,101784.34
2023-04-06T10:12:33.814Z,101781.41
2023-04-06T10:15:06.852Z,101785.69
2023-04-06T10:17:39.096Z,101790.63
2023-04-06T10:20:24.586Z,101779.72
2023-04-06T10:23:13.351Z,101775.56
2023-04-06T10:26:01.292Z,101782.28
2023-04-06T10:28:37.241Z,101777.78
2023-04-06T10:31:10.703Z,101785.13
2023-04-06T10:38:04.086Z,101781.00
2023-04-06T10:40:45.870Z,101768.91
2023-04-06T10:49:20.445Z,101764.88
2023-04-06T10:56:32.987Z,101771.19
2023-04-06T11:11:27.048Z,101742.59
2023-04-06T11:14:02.300Z,101740.31
2023-04-06T11:16:35.219Z,101747.16
2023-04-06T11:19:08.034Z,101747.84
2023-04-06T11:21:49.820Z,101738.00
2023-04-06T11:24:25.709Z,101742.34
2023-04-06T11:26:59.881Z,101745.59
2023-04-06T11:29:36.001Z,101740.00
2023-04-06T11:32:10.895Z,101730.25
2023-04-06T11:34:43.341Z,101725.81
2023-04-06T11:37:15.888Z,101731.88
2023-04-06T11:39:58.344Z,101729.03
2023-04-06T11:42:42.947Z,101708.50
2023-04-06T11:45:17.281Z,101719.53
2023-04-06T11:51:02.248Z,101711.03
2023-04-06T11:53:59.459Z,101713.84
2023-04-06T11:56:31.959Z,101711.13
2023-04-06T11:59:04.670Z,101704.00
2023-04-06T12:01:47.058Z,101704.16
2023-04-06T12:04:19.377Z,101698.97
2023-04-06T12:06:55.394Z,101694.41
2023-04-06T12:09:29.887Z,101696.88
2023-04-06T12:12:12.525Z,101695.50
2023-04-06T12:14:45.094Z,101690.41
2023-04-06T12:17:17.564Z,101687.28
2023-04-06T12:19:49.776Z,101686.47
2023-04-06T12:22:42.397Z,101683.03
2023-04-06T12:25:18.326Z,101682.66
2023-04-06T12:27:51.108Z,101688.53
2023-04-06T12:30:23.407Z,101675.06
2023-04-06T12:33:34.386Z,101672.81
2023-04-06T12:36:14.551Z,101671.16
2023-04-06T12:38:52.550Z,101670.19
2023-04-06T12:41:24.789Z,101675.72
2023-04-06T12:43:57.116Z,101672.19
2023-04-06T12:47:08.779Z,101672.38
2023-04-06T12:49:40.946Z,101677.66
2023-04-06T12:52:13.093Z,101678.38
2023-04-06T12:54:46.153Z,101671.06
2023-04-06T12:57:18.550Z,101668.97
2023-04-06T13:06:28.912Z,101658.88
2023-04-06T13:09:01.540Z,101660.31
2023-04-06T13:11:36.968Z,101664.81
2023-04-06T13:14:09.307Z,101666.22
2023-04-06T13:16:41.691Z,101668.84
2023-04-06T13:19:14.026Z,101664.22
2023-04-06T13:21:49.343Z,101656.09
2023-04-06T13:24:23.033Z,101658.78
2023-04-06T13:26:55.260Z,101652.38
2023-04-06T13:29:29.601Z,101656.03
2023-04-06T13:32:02.232Z,101651.19
2023-04-06T13:34:34.506Z,101648.34
2023-04-06T13:37:08.641Z,101647.44
2023-04-06T13:39:41.268Z,101649.38
2023-04-06T13:42:16.247Z,101653.78
2023-04-06T13:44:48.858Z,101647.00
2023-04-06T13:47:22.050Z,101642.22
2023-04-06T13:49:54.438Z,101636.34
2023-04-06T13:52:26.625Z,101635.34
2023-04-06T13:54:58.721Z,101630.19
2023-04-06T13:57:32.944Z,101636.41
2023-04-06T14:00:08.450Z,101634.06
2023-04-06T14:02:41.689Z,101629.75
2023-04-06T14:05:14.148Z,101628.03
2023-04-06T14:07:47.809Z,101622.63
2023-04-06T14:10:22.406Z,101624.78
2023-04-06T14:12:56.268Z,101632.31
2023-04-06T14:15:29.291Z,101623.53
2023-04-06T14:18:01.763Z,101629.53
2023-04-06T14:20:34.334Z,101629.84
2023-04-06T14:23:09.327Z,101624.13
2023-04-06T14:25:41.627Z,101619.63
2023-04-06T14:28:13.830Z,101625.44
2023-04-06T14:30:51.641Z,101620.06
2023-04-06T14:33:23.913Z,101615.22
2023-04-06T14:35:56.254Z,101625.09
2023-04-06T14:38:29.167Z,101608.22
2023-04-06T14:41:01.675Z,101613.88
2023-04-06T14:43:35.160Z,101617.22
2023-04-06T14:46:09.605Z,101617.28
2023-04-06T14:48:41.755Z,101615.50
2023-04-06T14:51:16.272Z,101612.88
2023-04-06T14:53:48.702Z,101612.84
2023-04-06T14:56:23.281Z,101609.41
2023-04-06T14:58:58.250Z,101604.06
2023-04-06T15:01:31.244Z,101596.69
2023-04-06T15:04:06.035Z,101604.63
2023-04-06T15:06:39.153Z,101599.22
2023-04-06T15:09:11.235Z,101599.53
2023-04-06T15:11:45.501Z,101600.78
2023-04-06T15:14:17.691Z,101596.06
2023-04-06T15:16:49.948Z,101594.25
2023-04-06T15:19:24.344Z,101593.31
2023-04-06T15:21:56.576Z,101594.63
2023-04-06T15:24:28.683Z,101597.41
2023-04-06T15:27:00.975Z,101596.66
2023-04-06T15:29:37.428Z,101590.47
2023-04-06T15:32:10.625Z,101595.41
2023-04-06T15:34:43.088Z,101578.84
2023-04-06T15:37:25.346Z,101591.78
2023-04-06T15:39:59.504Z,101585.28
2023-04-06T15:42:32.766Z,101583.44
2023-04-06T15:45:05.668Z,101589.75
2023-04-06T15:47:47.386Z,101582.69
2023-04-06T15:50:20.042Z,101590.00
2023-04-06T15:52:52.566Z,101591.97
2023-04-06T15:55:25.080Z,101587.78
2023-04-06T15:57:57.621Z,101589.72
2023-04-06T16:00:30.204Z,101585.19
2023-04-06T16:03:02.732Z,101585.22
2023-04-06T16:05:39.980Z,101585.31
2023-04-06T16:08:21.258Z,101590.00
2023-04-06T16:10:53.447Z,101590.13
2023-04-06T16:13:25.749Z,101587.53
2023-04-06T16:15:57.957Z,101587.56
2023-04-06T16:18:32.521Z,101590.97
2023-04-06T16:21:06.015Z,101586.59
2023-04-06T16:23:38.256Z,101594.50
2023-04-06T16:26:15.748Z,101590.34
2023-04-06T16:28:48.125Z,101584.38
2023-04-06T16:31:22.720Z,101577.53
2023-04-06T16:33:57.370Z,101576.59
2023-04-06T16:36:35.133Z,101581.94
2023-04-06T16:39:08.910Z,101572.25
2023-04-06T16:41:41.199Z,101579.31
2023-04-06T16:44:13.464Z,101576.69
2023-04-06T16:46:46.487Z,101581.13
2023-04-06T16:49:20.409Z,101579.41
2023-04-06T16:51:52.806Z,101577.72
2023-04-06T16:54:25.091Z,101579.47
2023-04-06T16:56:57.873Z,101578.63
2023-04-06T16:59:31.445Z,101576.13
2023-04-06T17:02:03.858Z,101571.88
2023-04-06T17:04:37.872Z,101574.56
2023-04-06T17:07:11.174Z,101571.97
2023-04-06T17:09:43.477Z,101570.28
2023-04-06T17:12:16.006Z,101567.66
2023-04-06T17:14:48.437Z,101572.91
2023-04-06T17:17:20.913Z,101566.00
2023-04-06T17:19:53.294Z,101574.81
2023-04-06T17:22:25.719Z,101576.59
2023-04-06T17:24:58.161Z,101581.06
2023-04-06T17:27:30.629Z,101572.38
2023-04-06T17:30:06.884Z,101575.91
2023-04-06T17:32:39.416Z,101579.56
2023-04-06T17:35:12.741Z,101589.25
2023-04-06T17:37:45.976Z,101589.28
2023-04-06T17:40:18.970Z,101580.50
2023-04-06T17:42:51.410Z,101586.72
2023-04-06T17:45:23.698Z,101593.78
2023-04-06T17:47:55.982Z,101595.59
2023-04-06T17:50:28.601Z,101589.44
2023-04-06T17:53:01.124Z,101593.88
2023-04-06T17:55:33.585Z,101592.19
2023-04-06T17:58:08.918Z,101593.97
2023-04-06T18:00:41.490Z,101602.75
2023-04-06T18:03:13.814Z,101603.66
2023-04-06T18:05:46.353Z,101601.94
2023-04-06T18:08:18.596Z,101601.09
2023-04-06T18:10:50.956Z,101604.63
2023-04-06T18:13:23.189Z,101604.63
2023-04-06T18:15:55.800Z,101602.91
2023-04-06T18:18:29.324Z,101611.66
2023-04-06T18:21:05.723Z,101602.94
2023-04-06T18:23:38.418Z,101605.59
2023-04-06T18:26:18.268Z,101604.75
2023-04-06T18:28:51.119Z,101610.88
2023-04-06T18:31:23.480Z,101610.91
2023-04-06T18:33:56.302Z,101614.38
2023-04-06T18:36:32.088Z,101607.41
2023-04-06T18:39:04.525Z,101622.28
2023-04-06T18:41:36.834Z,101616.16
2023-04-06T18:44:09.457Z,101621.41
2023-04-06T18:46:45.187Z,101622.28
2023-04-06T18:49:17.516Z,101630.16
2023-04-06T18:51:49.966Z,101627.53
2023-04-06T18:54:22.488Z,101632.78
2023-04-06T18:56:54.666Z,101635.41
2023-04-06T18:59:30.454Z,101631.03
2023-04-06T19:02:02.951Z,101631.91
2023-04-06T19:04:35.318Z,101636.28
2023-04-06T19:07:07.817Z,101641.53
2023-04-06T19:09:40.111Z,101640.66
2023-04-06T19:12:13.004Z,101645.03
2023-04-06T19:14:51.717Z,101646.78
2023-04-06T19:17:24.044Z,101643.28
2023-04-06T19:19:57.950Z,101638.91
2023-04-06T19:22:30.286Z,101640.63
2023-04-06T19:25:02.802Z,101644.09
2023-04-06T19:27:35.311Z,101641.47
2023-04-06T19:30:09.940Z,101633.63
2023-04-06T19:32:43.208Z,101630.13
2023-04-06T19:35:19.471Z,101631.88
2023-04-06T19:37:51.694Z,101634.50
2023-04-06T19:40:24.059Z,101633.63
2023-04-06T19:42:59.975Z,101634.47
2023-04-06T19:45:32.370Z,101637.97
2023-04-06T19:48:05.583Z,101641.44
2023-04-06T19:50:37.853Z,101641.44
2023-04-06T19:53:10.123Z,101637.94
2023-04-06T19:55:42.512Z,101638.81
2023-04-06T19:58:15.289Z,101640.53
2023-04-06T20:00:47.462Z,101639.66
2023-04-06T20:03:20.241Z,101637.03
2023-04-06T20:05:52.771Z,101630.91
2023-04-06T20:08:25.076Z,101634.41
2023-04-06T20:11:07.851Z,101629.16
2023-04-06T20:13:40.269Z,101634.41
2023-04-06T20:16:12.509Z,101631.78
2023-04-06T20:18:44.832Z,101627.38
2023-04-06T20:21:17.077Z,101631.72
2023-04-06T20:23:49.209Z,101625.59
2023-04-06T20:26:21.818Z,101625.63
2023-04-06T20:28:54.064Z,101628.25
2023-04-06T20:31:27.995Z,101629.06
2023-04-06T20:34:00.881Z,101625.56
2023-04-06T20:36:34.459Z,101633.38
2023-04-06T20:39:07.376Z,101636.88
2023-04-06T20:41:39.587Z,101629.03
2023-04-06T20:44:11.897Z,101629.03
2023-04-06T20:46:46.110Z,101630.78
2023-04-06T20:49:18.919Z,101630.75
2023-04-06T20:51:53.234Z,101628.13
2023-04-06T20:54:26.106Z,101628.13
2023-04-06T20:57:01.078Z,101623.75
2023-04-06T20:59:36.407Z,101624.56
2023-04-06T21:02:13.676Z,101629.75
2023-04-06T21:04:46.095Z,101628.03
2023-04-06T21:07:18.353Z,101625.38
2023-04-06T21:09:50.540Z,101639.28
2023-04-06T21:12:22.758Z,101665.38
2023-04-06T21:14:55.001Z,101657.38
2023-04-06T21:17:27.197Z,101643.44
2023-04-06T21:19:59.410Z,101680.88
2023-04-06T21:22:31.455Z,101659.81
2023-04-06T21:25:03.776Z,101638.81
2023-04-06T21:27:36.049Z,101643.94
2023-04-06T21:30:10.762Z,101647.44
2023-04-06T21:32:43.273Z,101645.66
2023-04-06T21:35:16.848Z,101646.47
2023-04-06T21:37:48.938Z,101649.09
2023-04-06T21:40:21.174Z,101648.16
2023-04-06T21:42:53.334Z,101649.00
2023-04-06T21:45:25.654Z,101647.19
2023-04-06T21:47:58.005Z,101642.75
2023-04-06T21:50:31.336Z,101640.09
2023-04-06T21:53:03.464Z,101642.69
2023-04-06T21:55:36.310Z,101637.44
2023-04-06T21:58:08.443Z,101642.72
2023-04-06T22:00:43.054Z,101640.09
2023-04-06T22:03:15.886Z,101649.63
2023-04-06T22:05:48.146Z,101636.59
2023-04-06T22:08:32.783Z,101634.84
2023-04-06T22:11:14.329Z,101633.06
2023-04-06T22:13:46.999Z,101632.97
2023-04-06T22:16:19.085Z,101638.97
2023-04-06T22:18:51.136Z,101635.44
2023-04-06T22:21:23.260Z,101639.84
2023-04-06T22:23:55.440Z,101639.91
2023-04-06T22:26:28.360Z,101646.03
2023-04-06T22:29:00.591Z,101651.25
2023-04-06T22:31:33.355Z,101643.44
2023-04-06T22:34:05.711Z,101653.88
2023-04-06T22:36:37.863Z,101645.13
2023-04-06T22:39:10.026Z,101651.09
2023-04-06T22:41:42.128Z,101643.28
2023-04-06T22:44:15.556Z,101642.38
2023-04-06T22:46:47.874Z,101643.25
2023-04-06T22:49:19.967Z,101644.13
2023-04-06T22:51:52.050Z,101638.03
2023-04-06T22:54:24.102Z,101651.03
2023-04-06T22:56:56.886Z,101648.25
2023-04-06T22:59:29.203Z,101647.28
2023-04-06T23:02:01.573Z,101653.44
2023-04-06T23:04:34.894Z,101649.09
2023-04-06T23:07:07.664Z,101655.16
2023-04-06T23:09:42.097Z,101662.94
2023-04-06T23:12:14.270Z,101669.78
2023-04-06T23:14:47.101Z,101657.53
2023-04-06T23:17:19.665Z,101664.44
2023-04-06T23:19:52.406Z,101664.41
2023-04-06T23:22:24.493Z,101666.03
2023-04-06T23:24:56.656Z,101669.53
2023-04-06T23:27:28.808Z,101670.47
2023-04-06T23:30:01.008Z,101662.66
2023-04-06T23:32:33.212Z,101665.22
2023-04-06T23:35:06.353Z,101668.66
2023-04-06T23:37:38.537Z,101666.88
2023-04-06T23:40:11.086Z,101673.84
2023-04-06T23:42:44.084Z,101672.81
2023-04-06T23:45:16.654Z,101665.03
2023-04-06T23:47:50.689Z,101666.75
2023-04-06T23:50:22.908Z,101667.44
2023-04-06T23:52:55.073Z,101670.03
2023-04-06T23:55:28.551Z,101672.53
2023-04-06T23:58:02.606Z,101669.88
